Time;durP1;ratioP1;P1;durP2;ratioP2;P2;SDS_P1;SDS_P2;PMS_P1;PMS_P2;Temp;Humidity;BMP_temperature;BMP_pressure;BME280_temperature;BME280_humidity;BME280_pressure;Samples;Min_cycle;Max_cycle;Signal;HPM_P1;HPM_P2
2022/10/27 00:02:23;;;;;;;17.43;16.03;;;10.50;99.90;;;;;;5030219;28;20181;-81
2022/10/27 00:04:50;;;;;;;16.67;15.27;;;10.50;99.90;;;;;;5039441;28;20195;-81
2022/10/27 00:07:17;;;;;;;16.60;15.17;;;10.60;99.90;;;;;;5034981;28;20572;-80
2022/10/27 00:09:44;;;;;;;18.67;15.23;;;10.50;99.90;;;;;;5028062;28;20191;-80
2022/10/27 00:12:10;;;;;;;17.00;15.50;;;10.50;99.90;;;;;;5026091;28;20257;-81
2022/10/27 00:14:37;;;;;;;16.40;14.80;;;10.50;99.90;;;;;;5028804;28;20194;-80
2022/10/27 00:17:06;;;;;;;16.03;14.53;;;10.50;99.90;;;;;;5028471;28;20200;-81
2022/10/27 00:19:32;;;;;;;15.70;13.27;;;10.40;99.90;;;;;;5027085;28;20200;-81
2022/10/27 00:21:59;;;;;;;15.37;13.83;;;10.40;99.90;;;;;;5026667;28;20180;-81
2022/10/27 00:24:26;;;;;;;14.07;12.60;;;10.40;99.90;;;;;;5030485;28;20192;-80
2022/10/27 00:26:53;;;;;;;15.13;13.57;;;10.40;99.90;;;;;;5029276;28;20688;-81
2022/10/27 00:29:20;;;;;;;14.97;13.73;;;10.40;99.90;;;;;;5031372;28;20200;-81
2022/10/27 00:31:47;;;;;;;16.10;14.70;;;10.30;99.90;;;;;;5026456;28;20762;-80
2022/10/27 00:34:15;;;;;;;14.67;13.47;;;10.40;99.90;;;;;;5032035;28;20199;-80
2022/10/27 00:36:42;;;;;;;18.20;16.57;;;10.40;99.90;;;;;;5033879;28;20200;-81
2022/10/27 00:39:09;;;;;;;16.70;15.23;;;10.30;99.90;;;;;;5031000;28;20204;-80
2022/10/27 00:41:37;;;;;;;17.57;15.93;;;10.30;99.90;;;;;;5032246;28;20279;-80
2022/10/27 00:44:30;;;;;;;17.70;16.20;;;10.30;99.90;;;;;;5028792;28;20188;-82
2022/10/27 00:46:59;;;;;;;13.23;11.90;;;10.30;99.90;;;;;;5026332;28;20614;-80
2022/10/27 00:49:30;;;;;;;12.70;11.37;;;10.30;99.90;;;;;;5030052;28;20199;-82
2022/10/27 00:52:01;;;;;;;13.67;12.43;;;10.20;99.90;;;;;;5027501;28;20228;-81
2022/10/27 00:54:30;;;;;;;17.43;16.03;;;10.20;99.90;;;;;;5026271;28;20183;-81
2022/10/27 00:56:58;;;;;;;18.17;16.73;;;10.20;99.90;;;;;;5029467;28;20224;-81
2022/10/27 00:59:25;;;;;;;10.83;9.73;;;10.20;99.90;;;;;;5033492;28;20212;-80
2022/10/27 01:01:53;;;;;;;15.27;13.97;;;10.10;99.90;;;;;;5031025;28;20667;-80
2022/10/27 01:04:32;;;;;;;15.07;12.40;;;10.00;99.90;;;;;;5029913;28;20238;-81
2022/10/27 01:07:00;;;;;;;17.70;16.40;;;9.90;99.90;;;;;;5028155;28;20195;-81
2022/10/27 01:09:28;;;;;;;13.30;12.00;;;9.90;99.90;;;;;;5017262;28;20285;-81
2022/10/27 01:11:55;;;;;;;15.67;14.27;;;9.70;99.90;;;;;;5028942;28;20232;-81
2022/10/27 01:14:22;;;;;;;15.33;13.53;;;9.70;99.90;;;;;;5028090;28;20642;-81
2022/10/27 01:16:59;;;;;;;14.83;13.33;;;9.70;99.90;;;;;;5026970;28;20200;-81
2022/10/27 01:19:58;;;;;;;12.37;10.33;;;9.60;99.90;;;;;;5029120;28;20286;-81
2022/10/27 01:22:29;;;;;;;15.87;14.57;;;9.50;99.90;;;;;;5027522;28;20196;-81
2022/10/27 01:25:28;;;;;;;19.20;16.63;;;9.50;99.90;;;;;;5028235;28;20201;-81
2022/10/27 01:28:46;;;;;;;17.97;16.13;;;9.50;99.90;;;;;;5021647;28;20197;-82
2022/10/27 01:31:20;;;;;;;20.03;18.50;;;9.60;99.90;;;;;;4954748;28;20280;-81
2022/10/27 01:33:50;;;;;;;16.30;14.67;;;9.60;99.90;;;;;;5014928;28;20569;-81
2022/10/27 01:36:23;;;;;;;13.33;11.93;;;9.60;99.90;;;;;;5025648;28;20201;-81
2022/10/27 01:38:56;;;;;;;16.93;15.23;;;9.70;99.90;;;;;;5029236;28;20199;-81
2022/10/27 01:41:27;;;;;;;15.57;13.93;;;9.70;99.90;;;;;;5027336;28;20641;-80
2022/10/27 01:44:00;;;;;;;15.03;13.50;;;9.60;99.90;;;;;;5025816;28;20197;-81
2022/10/27 01:46:28;;;;;;;17.83;16.33;;;9.60;99.90;;;;;;5029805;28;20672;-81
2022/10/27 01:48:56;;;;;;;17.90;16.40;;;9.50;99.90;;;;;;5029608;28;20193;-81
2022/10/27 01:51:22;;;;;;;15.30;13.80;;;9.50;99.90;;;;;;5030977;28;20227;-82
2022/10/27 01:53:51;;;;;;;17.60;16.17;;;9.40;99.90;;;;;;5027430;28;20614;-82
2022/10/27 01:56:52;;;;;;;18.17;16.77;;;9.40;99.90;;;;;;5031398;28;20225;-81
2022/10/27 01:59:46;;;;;;;15.47;14.13;;;9.50;99.90;;;;;;5030998;28;20203;-80
2022/10/27 02:02:22;;;;;;;19.17;17.50;;;9.50;99.90;;;;;;5027240;28;20199;-81
2022/10/27 02:05:03;;;;;;;15.83;13.77;;;9.50;99.90;;;;;;5025176;28;20223;-81
2022/10/27 02:07:39;;;;;;;18.73;17.03;;;9.50;99.90;;;;;;5025087;28;20217;-81
2022/10/27 02:10:10;;;;;;;14.00;12.70;;;9.50;99.90;;;;;;5028943;28;20218;-81
2022/10/27 02:12:39;;;;;;;17.87;16.37;;;9.50;99.90;;;;;;5030689;28;20223;-81
2022/10/27 02:15:22;;;;;;;18.37;16.97;;;9.40;99.90;;;;;;5026118;28;20203;-82
2022/10/27 02:17:54;;;;;;;16.77;15.37;;;9.30;99.90;;;;;;5028627;28;20192;-81
2022/10/27 02:20:23;;;;;;;17.53;15.83;;;9.20;99.90;;;;;;5027219;28;20234;-81
2022/10/27 02:22:53;;;;;;;16.87;15.27;;;9.20;99.90;;;;;;5026943;28;20196;-80
2022/10/27 02:25:24;;;;;;;11.43;9.67;;;9.20;99.90;;;;;;5024611;28;20622;-81
2022/10/27 02:28:01;;;;;;;16.77;15.30;;;9.20;99.90;;;;;;5029333;28;20226;-81
2022/10/27 02:30:29;;;;;;;9.77;8.03;;;9.10;99.90;;;;;;5019492;28;20214;-81
2022/10/27 02:32:57;;;;;;;11.10;8.37;;;9.10;99.90;;;;;;5025803;28;20220;-81
2022/10/27 02:35:24;;;;;;;17.33;15.57;;;9.20;99.90;;;;;;5028358;28;20572;-81
2022/10/27 02:37:52;;;;;;;16.53;15.10;;;9.20;99.90;;;;;;5023656;28;20197;-81
2022/10/27 02:40:19;;;;;;;12.17;10.63;;;9.30;99.90;;;;;;5030137;28;20216;-81
2022/10/27 02:42:46;;;;;;;12.50;10.70;;;9.20;99.90;;;;;;5026762;28;20258;-80
2022/10/27 02:45:13;;;;;;;15.90;10.90;;;9.20;99.90;;;;;;5024552;28;20211;-82
2022/10/27 02:47:40;;;;;;;15.17;13.90;;;9.10;99.90;;;;;;5028686;28;20203;-81
2022/10/27 02:50:09;;;;;;;15.70;14.33;;;9.00;99.90;;;;;;5027758;28;20575;-82
2022/10/27 02:52:36;;;;;;;15.90;14.43;;;8.90;99.90;;;;;;5033831;28;20589;-80
2022/10/27 02:55:03;;;;;;;16.63;14.97;;;8.90;99.90;;;;;;5027456;28;20204;-80
2022/10/27 02:57:30;;;;;;;16.60;14.97;;;8.90;99.90;;;;;;5029523;28;20195;-81
2022/10/27 02:59:56;;;;;;;17.10;15.40;;;8.90;99.90;;;;;;5029200;28;20216;-83
2022/10/27 03:02:23;;;;;;;16.57;15.27;;;8.90;99.90;;;;;;5030080;28;20195;-82
2022/10/27 03:04:50;;;;;;;16.93;15.43;;;8.90;99.90;;;;;;5031024;28;20211;-82
2022/10/27 03:07:19;;;;;;;16.30;15.13;;;8.90;99.90;;;;;;5029312;28;20261;-82
2022/10/27 03:09:46;;;;;;;18.10;16.27;;;9.00;99.90;;;;;;5032392;28;20239;-82
2022/10/27 03:12:13;;;;;;;16.80;15.57;;;8.90;99.90;;;;;;5032925;28;20688;-82
2022/10/27 03:14:40;;;;;;;16.93;15.63;;;8.90;99.90;;;;;;5026312;28;20250;-81
2022/10/27 03:17:07;;;;;;;17.20;15.60;;;8.80;99.90;;;;;;5031923;28;20200;-80
2022/10/27 03:19:34;;;;;;;16.43;15.13;;;8.80;99.90;;;;;;5026330;28;20206;-82
2022/10/27 03:22:01;;;;;;;16.93;15.43;;;8.70;99.90;;;;;;5033261;28;20200;-82
2022/10/27 03:24:29;;;;;;;16.63;15.33;;;8.70;99.90;;;;;;5031630;28;20195;-80
2022/10/27 03:26:56;;;;;;;17.83;16.33;;;8.70;99.90;;;;;;5028609;28;20690;-82
2022/10/27 03:29:22;;;;;;;13.70;12.33;;;8.70;99.90;;;;;;5026211;28;20207;-80
2022/10/27 03:31:49;;;;;;;16.13;14.73;;;8.60;99.90;;;;;;5028715;28;20258;-82
2022/10/27 03:34:16;;;;;;;11.73;10.67;;;8.60;99.90;;;;;;5028581;28;20222;-83
2022/10/27 03:36:43;;;;;;;14.87;9.90;;;8.60;99.90;;;;;;5025493;28;20200;-82
2022/10/27 03:39:10;;;;;;;10.37;9.33;;;8.50;99.90;;;;;;5030637;28;20223;-83
2022/10/27 03:41:38;;;;;;;12.23;10.00;;;8.60;99.90;;;;;;5024990;28;20598;-80
2022/10/27 03:44:05;;;;;;;15.13;13.83;;;8.50;99.90;;;;;;5029842;28;20253;-80
2022/10/27 03:46:32;;;;;;;14.50;13.20;;;8.50;99.90;;;;;;5024829;28;20206;-82
2022/10/27 03:48:59;;;;;;;17.13;15.53;;;8.50;99.90;;;;;;5024192;28;20203;-82
2022/10/27 03:51:26;;;;;;;14.23;13.07;;;8.50;99.90;;;;;;5028150;28;20227;-83
2022/10/27 03:53:52;;;;;;;14.27;13.07;;;8.50;99.90;;;;;;5025260;28;20217;-82
2022/10/27 03:56:19;;;;;;;8.60;7.00;;;8.50;99.90;;;;;;5023346;28;20207;-82
2022/10/27 03:58:47;;;;;;;11.87;10.80;;;8.50;99.90;;;;;;5026568;28;20196;-82
2022/10/27 04:01:14;;;;;;;11.30;10.13;;;8.50;99.90;;;;;;5025431;28;20216;-83
2022/10/27 04:03:41;;;;;;;8.27;7.57;;;8.60;99.90;;;;;;5026970;28;20203;-82
2022/10/27 04:06:08;;;;;;;9.27;8.57;;;8.60;99.90;;;;;;5027186;28;20196;-82
2022/10/27 04:08:35;;;;;;;11.10;10.20;;;8.60;99.90;;;;;;5023561;28;20200;-82
2022/10/27 04:11:02;;;;;;;12.93;11.73;;;8.60;99.90;;;;;;5031668;28;20640;-81
2022/10/27 04:13:29;;;;;;;15.83;14.70;;;8.50;99.90;;;;;;5027327;28;20208;-82
2022/10/27 04:15:59;;;;;;;8.90;7.50;;;8.40;99.90;;;;;;5027821;28;20572;-82
2022/10/27 04:18:26;;;;;;;15.03;13.83;;;8.40;99.90;;;;;;5030519;28;20200;-82
2022/10/27 04:20:53;;;;;;;9.47;8.43;;;8.40;99.90;;;;;;5028801;28;20278;-82
2022/10/27 04:23:20;;;;;;;11.67;8.63;;;8.40;99.90;;;;;;5027459;28;20208;-82
2022/10/27 04:25:47;;;;;;;18.07;16.57;;;8.40;99.90;;;;;;5027961;28;20207;-82
2022/10/27 04:28:14;;;;;;;10.53;9.47;;;8.50;99.90;;;;;;5027867;28;20669;-82
2022/10/27 04:30:41;;;;;;;7.13;6.40;;;8.50;99.90;;;;;;5034175;28;20219;-82
2022/10/27 04:33:10;;;;;;;7.47;6.73;;;8.50;99.90;;;;;;5034918;28;20219;-82
2022/10/27 04:35:37;;;;;;;6.37;5.77;;;8.50;99.90;;;;;;5027031;28;20683;-82
2022/10/27 04:38:04;;;;;;;6.70;6.10;;;8.50;99.90;;;;;;5030663;28;20204;-82
2022/10/27 04:40:30;;;;;;;6.80;5.77;;;8.50;99.90;;;;;;5033890;28;20211;-82
2022/10/27 04:42:58;;;;;;;8.83;8.13;;;8.50;99.90;;;;;;5029028;28;20211;-81
2022/10/27 04:45:24;;;;;;;6.43;5.83;;;8.50;99.90;;;;;;5026613;28;20199;-82
2022/10/27 04:47:51;;;;;;;6.50;5.90;;;8.50;99.90;;;;;;5027620;28;20204;-83
2022/10/27 04:50:21;;;;;;;6.13;5.63;;;8.60;99.90;;;;;;5034384;28;20245;-82
2022/10/27 04:52:55;;;;;;;7.10;6.50;;;8.60;99.90;;;;;;5034818;28;20216;-83
2022/10/27 04:55:21;;;;;;;13.97;13.17;;;8.70;99.90;;;;;;5028381;28;20228;-82
2022/10/27 04:57:48;;;;;;;10.20;9.50;;;8.70;99.90;;;;;;5032705;28;20241;-82
2022/10/27 05:00:16;;;;;;;8.73;7.90;;;8.70;99.90;;;;;;5033479;28;20227;-82
2022/10/27 05:02:42;;;;;;;7.10;6.50;;;8.70;99.90;;;;;;5030626;28;20683;-82
2022/10/27 05:05:10;;;;;;;9.07;8.47;;;8.70;99.90;;;;;;5032573;28;20200;-83
2022/10/27 05:07:38;;;;;;;9.13;8.53;;;8.70;99.90;;;;;;5036194;28;20195;-83
2022/10/27 05:10:05;;;;;;;6.90;6.20;;;8.80;99.90;;;;;;5028809;28;20219;-82
2022/10/27 05:12:32;;;;;;;5.90;5.40;;;8.80;99.90;;;;;;5033026;28;20204;-83
2022/10/27 05:14:59;;;;;;;6.50;5.90;;;8.80;99.90;;;;;;5030107;28;20200;-83
2022/10/27 05:17:26;;;;;;;6.37;5.77;;;8.80;99.90;;;;;;5034927;28;20203;-82
2022/10/27 05:19:53;;;;;;;6.40;5.87;;;8.80;99.90;;;;;;5031926;28;20195;-83
2022/10/27 05:22:20;;;;;;;5.90;5.40;;;8.80;99.90;;;;;;5029447;28;20200;-82
2022/10/27 05:24:48;;;;;;;6.73;6.13;;;8.90;99.90;;;;;;5029582;28;20244;-82
2022/10/27 05:27:15;;;;;;;8.83;6.83;;;8.90;99.90;;;;;;5031727;28;20673;-82
2022/10/27 05:29:41;;;;;;;6.63;6.03;;;8.90;99.90;;;;;;5033481;28;20215;-83
2022/10/27 05:32:08;;;;;;;7.13;6.43;;;8.90;99.90;;;;;;5032731;28;20232;-83
2022/10/27 05:34:35;;;;;;;7.00;6.33;;;8.90;99.90;;;;;;5028570;28;20216;-83
2022/10/27 05:37:02;;;;;;;7.50;6.87;;;8.90;99.90;;;;;;5028390;28;20734;-83
2022/10/27 05:39:29;;;;;;;7.10;6.50;;;8.90;99.90;;;;;;5031916;28;20196;-83
2022/10/27 05:41:57;;;;;;;6.23;5.73;;;8.90;99.90;;;;;;5027528;28;20231;-82
2022/10/27 05:44:24;;;;;;;6.87;6.30;;;9.00;99.90;;;;;;5036211;28;20195;-82
2022/10/27 05:46:51;;;;;;;6.60;6.00;;;9.00;99.90;;;;;;5029745;28;20210;-81
2022/10/27 05:49:18;;;;;;;8.17;5.67;;;9.00;99.90;;;;;;5029049;28;20525;-83
2022/10/27 05:51:44;;;;;;;6.43;5.83;;;9.00;99.90;;;;;;5030898;28;20227;-83
2022/10/27 05:54:11;;;;;;;8.20;7.53;;;8.90;99.90;;;;;;5029237;28;20306;-83
2022/10/27 05:56:38;;;;;;;9.30;8.50;;;8.90;99.90;;;;;;5031547;28;20478;-83
2022/10/27 05:59:06;;;;;;;6.30;5.80;;;8.90;99.90;;;;;;5027275;28;20205;-83
2022/10/27 06:01:33;;;;;;;6.17;5.67;;;8.80;99.90;;;;;;5033110;28;20720;-83
2022/10/27 06:04:00;;;;;;;10.73;9.80;;;8.80;99.90;;;;;;5030287;28;20196;-83
2022/10/27 06:06:27;;;;;;;7.20;6.50;;;8.80;99.90;;;;;;5054105;22;20238;-81
2022/10/27 06:09:14;;;;;;;7.33;6.67;;;8.80;99.90;;;;;;5031999;28;20265;-81
2022/10/27 06:11:46;;;;;;;8.53;7.80;;;8.80;99.90;;;;;;5032690;28;20206;-81
2022/10/27 06:14:18;;;;;;;7.93;5.93;;;8.80;99.90;;;;;;5034532;28;20319;-81
2022/10/27 06:16:45;;;;;;;6.70;6.10;;;8.80;99.90;;;;;;5020525;28;20220;-81
2022/10/27 06:19:12;;;;;;;6.77;6.10;;;8.80;99.90;;;;;;5024070;28;20279;-81
2022/10/27 06:21:38;;;;;;;7.10;6.40;;;8.70;99.90;;;;;;5018268;28;20192;-81
2022/10/27 06:24:06;;;;;;;7.07;6.37;;;8.70;99.90;;;;;;5012602;28;20249;-80
2022/10/27 06:26:33;;;;;;;7.50;6.80;;;8.80;99.90;;;;;;5018080;28;20710;-81
2022/10/27 06:29:00;;;;;;;7.60;6.80;;;8.80;99.90;;;;;;5012723;28;20201;-81
2022/10/27 06:31:28;;;;;;;7.33;6.30;;;8.90;99.90;;;;;;5021490;28;20196;-81
2022/10/27 06:33:55;;;;;;;6.07;5.50;;;8.90;99.90;;;;;;5017327;28;20212;-81
2022/10/27 06:36:22;;;;;;;5.90;5.40;;;8.90;99.90;;;;;;5015457;28;20224;-81
2022/10/27 06:38:49;;;;;;;6.30;5.67;;;9.00;99.90;;;;;;5021373;28;20208;-81
2022/10/27 06:41:16;;;;;;;6.07;5.47;;;9.10;99.90;;;;;;5026288;28;20458;-81
2022/10/27 06:43:43;;;;;;;12.47;11.67;;;9.10;99.90;;;;;;5016158;28;20192;-80
2022/10/27 06:46:10;;;;;;;5.67;5.17;;;9.20;99.90;;;;;;5023530;28;20650;-81
2022/10/27 06:48:38;;;;;;;6.90;6.20;;;9.30;99.90;;;;;;5018517;28;20238;-82
2022/10/27 06:51:05;;;;;;;11.73;10.70;;;9.50;99.90;;;;;;5015382;28;20200;-81
2022/10/27 06:53:32;;;;;;;15.43;14.53;;;9.60;99.90;;;;;;5021580;28;20216;-82
2022/10/27 06:55:59;;;;;;;15.03;14.13;;;9.70;99.90;;;;;;5016625;28;20366;-81
2022/10/27 06:58:26;;;;;;;15.47;14.47;;;9.80;99.90;;;;;;5024484;28;20188;-80
2022/10/27 07:00:53;;;;;;;13.90;13.00;;;9.90;99.90;;;;;;5016530;28;20193;-82
2022/10/27 07:03:20;;;;;;;13.97;12.97;;;10.00;99.90;;;;;;5026012;28;20255;-80
2022/10/27 07:05:48;;;;;;;14.70;13.77;;;10.10;99.90;;;;;;5020207;28;20246;-81
2022/10/27 07:08:15;;;;;;;14.63;13.73;;;10.10;99.90;;;;;;5019822;28;20208;-82
2022/10/27 07:10:42;;;;;;;14.50;13.60;;;10.10;99.90;;;;;;5014112;28;20196;-80
2022/10/27 07:16:17;;;;;;;14.63;13.63;;;10.20;99.90;;;;;;5020167;28;20227;-80
2022/10/27 07:22:45;;;;;;;14.67;13.70;;;10.30;99.90;;;;;;5008615;28;20206;-81
2022/10/27 07:26:35;;;;;;;14.20;13.20;;;10.30;99.90;;;;;;5013266;28;20240;-81
2022/10/27 07:29:28;;;;;;;15.07;13.97;;;10.40;99.90;;;;;;4975844;28;20693;-81
2022/10/27 07:35:39;;;;;;;14.37;13.47;;;10.60;99.90;;;;;;5019142;28;20300;-81
2022/10/27 07:38:07;;;;;;;14.50;13.50;;;10.70;99.90;;;;;;5016538;28;20287;-81
2022/10/27 07:40:35;;;;;;;13.70;12.80;;;10.80;99.90;;;;;;5017359;28;20295;-82
2022/10/27 07:43:02;;;;;;;14.50;13.50;;;10.90;99.90;;;;;;5016795;28;20271;-80
2022/10/27 07:45:29;;;;;;;15.33;14.37;;;11.00;99.90;;;;;;5001445;28;20219;-81
2022/10/27 07:47:57;;;;;;;15.17;14.17;;;11.20;99.90;;;;;;5021208;28;20212;-81
2022/10/27 07:50:27;;;;;;;6.17;5.57;;;11.50;99.90;;;;;;5017946;28;20209;-82
2022/10/27 07:52:57;;;;;;;11.30;10.30;;;11.90;99.90;;;;;;5016718;28;20246;-82
2022/10/27 07:55:27;;;;;;;14.77;13.70;;;12.30;99.90;;;;;;5022935;28;20713;-82
2022/10/27 07:58:01;;;;;;;13.70;12.80;;;12.90;99.90;;;;;;5016484;28;20201;-81
2022/10/27 08:00:29;;;;;;;14.60;13.60;;;13.40;99.90;;;;;;5014257;28;20204;-82
2022/10/27 08:02:59;;;;;;;9.63;8.83;;;13.90;99.90;;;;;;5019593;28;20197;-82
2022/10/27 08:05:29;;;;;;;11.23;10.40;;;14.30;99.90;;;;;;5018751;28;20216;-82
2022/10/27 08:08:02;;;;;;;9.13;8.53;;;14.50;99.90;;;;;;5019363;28;20202;-81
2022/10/27 08:10:32;;;;;;;4.70;4.30;;;14.80;99.90;;;;;;5016317;28;20191;-83
2022/10/27 08:12:59;;;;;;;13.67;12.57;;;15.00;99.90;;;;;;5018270;28;20213;-83
2022/10/27 08:15:26;;;;;;;13.23;12.33;;;15.10;99.90;;;;;;5017448;28;20725;-83
2022/10/27 08:17:55;;;;;;;13.27;12.27;;;15.20;99.90;;;;;;5019692;28;20212;-84
2022/10/27 08:20:23;;;;;;;4.93;4.53;;;15.30;99.90;;;;;;5021307;28;20269;-82
2022/10/27 08:22:54;;;;;;;13.60;12.60;;;15.50;99.90;;;;;;5021265;28;20244;-82
2022/10/27 08:25:21;;;;;;;5.20;4.57;;;15.60;99.90;;;;;;5022887;28;20313;-84
2022/10/27 08:27:50;;;;;;;4.90;4.27;;;15.80;99.90;;;;;;5023303;28;20746;-80
2022/10/27 08:30:17;;;;;;;4.60;4.20;;;15.90;99.90;;;;;;5016770;28;20203;-80
2022/10/27 08:32:44;;;;;;;4.90;4.33;;;16.10;99.90;;;;;;5018869;28;20199;-81
2022/10/27 08:35:11;;;;;;;12.17;11.27;;;16.20;99.90;;;;;;5019690;28;20235;-83
2022/10/27 08:37:37;;;;;;;12.37;11.60;;;16.30;99.90;;;;;;5005826;28;20658;-83
2022/10/27 08:40:06;;;;;;;13.27;12.07;;;16.50;99.90;;;;;;5012516;28;20205;-83
2022/10/27 08:42:43;;;;;;;12.40;11.47;;;16.40;99.90;;;;;;5018513;28;20209;-82
2022/10/27 08:45:15;;;;;;;11.63;10.60;;;16.60;99.90;;;;;;5017272;28;20275;-84
2022/10/27 08:47:43;;;;;;;13.57;12.67;;;16.60;99.90;;;;;;5020092;28;20207;-84
2022/10/27 08:50:14;;;;;;;5.60;4.33;;;16.90;99.90;;;;;;5024007;28;20291;-83
2022/10/27 08:52:44;;;;;;;10.97;10.17;;;17.10;99.90;;;;;;5016776;28;20200;-83
2022/10/27 08:55:21;;;;;;;13.60;12.60;;;17.10;99.90;;;;;;5015126;28;20240;-84
2022/10/27 08:57:53;;;;;;;12.17;11.37;;;17.30;99.90;;;;;;5011721;28;20203;-84
2022/10/27 09:00:22;;;;;;;9.20;8.47;;;17.40;99.90;;;;;;5020622;28;20289;-83
2022/10/27 09:03:09;;;;;;;9.97;9.17;;;17.60;99.90;;;;;;5026626;28;20213;-84
2022/10/27 09:05:51;;;;;;;6.93;4.10;;;17.80;99.90;;;;;;5013487;28;20307;-83
2022/10/27 09:08:25;;;;;;;5.10;4.10;;;17.70;99.90;;;;;;5024516;28;20220;-83
2022/10/27 09:11:01;;;;;;;11.07;10.27;;;17.90;99.90;;;;;;5019579;28;20208;-84
2022/10/27 09:14:12;;;;;;;6.03;4.50;;;18.10;99.90;;;;;;5017335;28;20193;-83
2022/10/27 09:17:11;;;;;;;5.50;4.60;;;18.20;99.90;;;;;;4993264;28;20205;-83
2022/10/27 09:19:43;;;;;;;11.50;10.80;;;18.30;99.90;;;;;;5022462;28;20224;-84
2022/10/27 09:22:15;;;;;;;7.93;7.13;;;18.40;99.90;;;;;;5016172;28;20208;-83
2022/10/27 09:24:42;;;;;;;12.53;11.73;;;18.50;99.90;;;;;;5029335;28;20203;-84
2022/10/27 09:27:11;;;;;;;13.37;12.17;;;18.50;99.90;;;;;;5018630;28;20204;-84
2022/10/27 09:29:39;;;;;;;10.70;10.00;;;18.50;99.90;;;;;;5020991;28;20220;-84
2022/10/27 09:32:16;;;;;;;12.90;11.93;;;18.40;99.90;;;;;;5013830;28;20203;-83
2022/10/27 09:34:45;;;;;;;9.30;8.63;;;18.40;99.90;;;;;;5017063;28;20216;-84
2022/10/27 09:37:15;;;;;;;4.37;3.97;;;18.40;99.90;;;;;;5020712;28;20209;-82
2022/10/27 09:39:46;;;;;;;7.97;7.30;;;18.50;99.90;;;;;;5018867;28;20202;-83
2022/10/27 09:42:13;;;;;;;8.93;8.13;;;18.40;99.90;;;;;;5024117;28;20217;-82
2022/10/27 09:44:41;;;;;;;11.33;10.53;;;18.40;99.90;;;;;;5019168;28;20199;-83
2022/10/27 09:47:10;;;;;;;10.93;10.23;;;18.40;99.90;;;;;;5025179;28;20203;-83
2022/10/27 09:49:39;;;;;;;8.47;7.67;;;18.40;99.90;;;;;;5022600;28;20203;-83
2022/10/27 09:52:15;;;;;;;4.97;3.97;;;18.30;99.90;;;;;;5019539;28;20575;-82
2022/10/27 09:54:53;;;;;;;4.40;3.60;;;18.20;99.90;;;;;;5014729;28;20227;-83
2022/10/27 09:57:23;;;;;;;4.70;3.57;;;18.20;99.90;;;;;;5005221;28;20206;-83
2022/10/27 10:00:14;;;;;;;5.27;3.80;;;18.10;99.90;;;;;;5009414;28;20204;-83
2022/10/27 10:03:01;;;;;;;5.17;3.90;;;17.90;99.90;;;;;;4989340;28;20635;-84
2022/10/27 10:05:31;;;;;;;5.80;3.83;;;17.90;99.90;;;;;;5009193;28;20226;-83
2022/10/27 10:08:22;;;;;;;6.30;3.97;;;18.00;99.90;;;;;;5020653;28;20198;-84
2022/10/27 10:10:57;;;;;;;5.17;3.90;;;18.00;99.90;;;;;;5012283;28;20579;-82
2022/10/27 10:13:25;;;;;;;5.77;4.10;;;18.00;99.90;;;;;;5009131;28;20205;-83
2022/10/27 10:16:06;;;;;;;6.37;4.20;;;18.00;99.90;;;;;;5021035;28;20621;-83
2022/10/27 10:18:35;;;;;;;3.70;3.33;;;18.00;99.90;;;;;;5009253;28;20222;-83
2022/10/27 10:21:05;;;;;;;4.40;3.73;;;18.00;99.90;;;;;;5012904;28;20201;-83
2022/10/27 10:23:35;;;;;;;6.43;3.90;;;18.00;99.90;;;;;;5016702;28;20588;-83
2022/10/27 10:26:03;;;;;;;4.03;3.63;;;17.90;99.90;;;;;;5018930;28;20742;-84
2022/10/27 10:28:35;;;;;;;5.27;3.60;;;17.90;99.90;;;;;;5010561;28;20201;-82
2022/10/27 10:31:05;;;;;;;4.80;3.90;;;17.90;99.90;;;;;;5019342;28;20197;-83
2022/10/27 10:33:36;;;;;;;4.40;3.50;;;18.00;99.90;;;;;;5013103;28;20212;-83
2022/10/27 10:36:19;;;;;;;4.63;3.60;;;17.90;99.90;;;;;;5017353;28;20225;-83
2022/10/27 10:38:51;;;;;;;5.77;4.30;;;18.00;99.90;;;;;;5020537;28;20206;-81
2022/10/27 10:41:20;;;;;;;5.83;5.20;;;18.00;99.90;;;;;;5015004;28;20299;-82
2022/10/27 10:44:06;;;;;;;5.20;4.70;;;17.90;99.90;;;;;;5017460;28;20243;-82
2022/10/27 10:46:34;;;;;;;5.00;4.57;;;18.00;99.90;;;;;;5014262;28;20212;-83
2022/10/27 10:49:14;;;;;;;5.20;4.80;;;18.00;99.90;;;;;;5013970;28;20284;-83
2022/10/27 10:51:41;;;;;;;4.50;4.10;;;18.10;99.90;;;;;;5015254;28;20208;-82
2022/10/27 10:54:16;;;;;;;4.57;4.17;;;18.10;99.90;;;;;;5018670;28;20220;-83
2022/10/27 10:56:43;;;;;;;4.73;4.30;;;18.10;99.90;;;;;;5013782;28;20700;-83
2022/10/27 10:59:14;;;;;;;5.27;4.17;;;18.20;99.90;;;;;;5023437;28;20268;-83
2022/10/27 11:01:45;;;;;;;10.33;9.73;;;18.20;99.90;;;;;;5017784;28;20254;-81
2022/10/27 11:04:17;;;;;;;10.03;9.33;;;18.30;99.90;;;;;;5012597;28;20570;-83
2022/10/27 11:07:02;;;;;;;7.40;6.80;;;18.30;99.90;;;;;;5013852;28;20640;-83
2022/10/27 11:09:36;;;;;;;10.97;10.20;;;18.40;99.90;;;;;;5007616;28;20206;-83
2022/10/27 11:12:05;;;;;;;4.73;4.10;;;18.40;99.90;;;;;;5023269;28;20681;-83
2022/10/27 11:14:33;;;;;;;4.70;4.30;;;18.40;99.90;;;;;;5017661;28;20189;-84
2022/10/27 11:17:03;;;;;;;4.07;3.77;;;18.50;99.90;;;;;;5015901;28;20202;-83
2022/10/27 11:19:36;;;;;;;9.77;9.17;;;18.60;99.90;;;;;;5011238;28;20232;-83
2022/10/27 11:22:07;;;;;;;11.27;10.57;;;18.60;99.90;;;;;;5024539;28;20210;-84
2022/10/27 11:24:41;;;;;;;11.40;10.67;;;18.70;99.90;;;;;;5016534;28;20204;-83
2022/10/27 12:00:00;;;;;;;4.33;4.00;;;19.40;99.90;;;;;;4969249;28;20216;-80
2022/10/27 12:02:46;;;;;;;4.20;3.80;;;19.40;99.90;;;;;;4957855;28;20205;-80
2022/10/27 12:05:19;;;;;;;4.47;4.07;;;19.40;99.90;;;;;;4938836;29;20210;-80
2022/10/27 12:07:57;;;;;;;5.00;4.30;;;19.40;99.90;;;;;;4957398;28;20322;-80
2022/10/27 12:10:34;;;;;;;4.50;4.10;;;19.40;99.90;;;;;;4956931;28;20212;-80
2022/10/27 12:13:06;;;;;;;4.50;4.10;;;19.40;99.90;;;;;;4956596;28;20725;-79
2022/10/27 12:15:39;;;;;;;5.50;5.10;;;19.40;99.90;;;;;;4949349;29;20217;-80
2022/10/27 12:18:12;;;;;;;4.40;4.00;;;19.40;99.90;;;;;;4959272;28;20217;-80
2022/10/27 12:20:45;;;;;;;4.60;4.20;;;19.50;99.90;;;;;;4957292;28;20213;-79
2022/10/27 12:23:17;;;;;;;8.23;7.63;;;19.50;99.90;;;;;;4957790;28;20280;-80
2022/10/27 12:25:52;;;;;;;8.60;8.00;;;19.60;99.90;;;;;;4962330;28;20204;-79
2022/10/27 12:28:21;;;;;;;7.57;7.00;;;19.60;99.90;;;;;;4956405;28;20226;-78
2022/10/27 12:30:50;;;;;;;4.50;4.20;;;19.60;99.90;;;;;;4953304;29;20266;-77
2022/10/27 12:33:22;;;;;;;6.30;5.80;;;19.60;99.90;;;;;;4965391;28;20208;-77
2022/10/27 12:35:54;;;;;;;6.17;5.67;;;19.70;99.90;;;;;;4968229;28;20230;-78
2022/10/27 12:38:27;;;;;;;4.03;3.73;;;19.70;99.90;;;;;;4968758;28;20230;-78
2022/10/27 12:41:03;;;;;;;8.80;8.20;;;19.80;99.90;;;;;;4967601;28;20208;-78
2022/10/27 12:43:37;;;;;;;4.50;4.20;;;19.80;99.90;;;;;;4969331;28;20202;-77
2022/10/27 12:46:16;;;;;;;14.33;13.53;;;19.80;99.90;;;;;;4968687;29;20194;-78
2022/10/27 12:48:52;;;;;;;5.07;4.73;;;19.90;99.90;;;;;;4968346;28;20218;-77
2022/10/27 12:51:31;;;;;;;5.77;5.27;;;19.90;99.90;;;;;;4968589;28;20219;-78
2022/10/27 12:54:09;;;;;;;3.77;3.47;;;20.00;99.90;;;;;;4967946;28;20205;-77
2022/10/27 12:56:45;;;;;;;4.97;4.10;;;20.00;99.90;;;;;;4968415;28;20222;-78
2022/10/27 12:59:23;;;;;;;9.40;8.80;;;20.00;99.90;;;;;;4968931;28;20233;-77
2022/10/27 13:01:57;;;;;;;10.00;9.40;;;20.00;99.90;;;;;;4966092;28;20205;-78
2022/10/27 13:04:57;;;;;;;9.53;8.83;;;20.00;99.90;;;;;;4969591;28;20202;-77
2022/10/27 13:07:55;;;;;;;7.83;7.33;;;20.00;99.90;;;;;;4968978;28;20227;-78
2022/10/27 13:10:38;;;;;;;7.53;7.03;;;20.00;99.90;;;;;;4968680;29;20217;-78
2022/10/27 13:13:28;;;;;;;9.00;8.40;;;20.10;99.90;;;;;;4968997;28;20202;-78
2022/10/27 13:16:04;;;;;;;8.80;8.30;;;20.10;99.90;;;;;;4968676;28;20212;-78
2022/10/27 13:19:04;;;;;;;8.50;8.00;;;20.20;99.90;;;;;;4966265;28;20248;-77
2022/10/27 13:21:39;;;;;;;10.27;9.67;;;20.20;99.90;;;;;;4954985;29;20213;-78
2022/10/27 13:24:17;;;;;;;9.13;8.53;;;20.20;99.90;;;;;;4966391;28;20494;-77
2022/10/27 13:26:52;;;;;;;8.80;8.20;;;20.20;99.90;;;;;;4967410;28;20200;-77
2022/10/27 13:29:30;;;;;;;9.30;8.60;;;20.20;99.90;;;;;;4968069;28;20226;-78
2022/10/27 13:32:16;;;;;;;9.13;8.50;;;20.20;99.90;;;;;;4964137;28;20575;-78
2022/10/27 13:35:37;;;;;;;9.37;8.77;;;20.30;99.90;;;;;;4952312;29;20233;-77
2022/10/27 13:38:34;;;;;;;9.10;8.50;;;20.30;99.90;;;;;;4960332;28;20237;-81
2022/10/27 13:41:01;;;;;;;8.77;8.17;;;20.40;99.90;;;;;;4944080;29;20207;-81
2022/10/27 13:43:58;;;;;;;8.87;8.27;;;20.40;99.90;;;;;;4957707;28;20203;-81
2022/10/27 13:47:08;;;;;;;4.50;4.20;;;20.40;99.90;;;;;;4942909;29;20537;-79
2022/10/27 13:49:58;;;;;;;4.37;3.97;;;20.50;99.90;;;;;;4960660;28;20230;-80